Main page
METAR-TAF:

METAR-TAF

Airports :

Stornoway Airport

Stornoway, Scotland

latitude: 58-13N, longitude: 006-19W, elevation: 9 m

Current weather observation

The report was made 24 minutes ago, at 13:20 UTC
Wind 11 kt from the South
Temperature 18°C
Humidity 64%
Pressure 1023 hPa
Visibility 10 km or more
Few clouds at a height of 3000 ft

METAR: EGPO 241320Z 19011KT 9999 FEW030 18/11 Q1023

Time: 14:44 (13:44 UTC)

Forecast

The report was made 2 hours and 41 minutes ago, at 11:03 UTC
Forecast valid from 24 at 12 UTC to 24 at 21 UTC
Wind 8 kt from the South
Visibility 10 km or more
no clouds below 1500 m and no cumulonimbus
Temporary
from 24 at 18 UTC to 24 at 21 UTC
Visibility: 6000 m
Broken clouds at a height of 1200 ft

TAF: EGPO 241103Z 2412/2421 19008KT CAVOK TEMPO 2418/2421 6000 BKN012

Weather observations and forecasts of more than 4000 airports (METAR and TAF reports).

The available stations are represented by yellow and red dots on the map.

Hover mouse over dot to see the name of the station.

Then click to see weather observations and forecasts.

To change the map : click on the green buttons with a black cross to zoom in, on the green button with a dash to zoom out, or on the green arrows for adjacent maps.


METAR-TAF: